Terminal Aerodrome Forecast
Issued by NWS

Home | Current Version | Previous Version | Text Only | Print | Product List | Glossary On
Versions: 1 2 3 4 5 6 7 8 9 10 11 12 13 14 15
000
FTUS43 KGRR 311100
TAFAZO
TAF
KAZO 311138Z 3112/0112 24008KT P6SM SCT040 BKN110
     FM311800 26010KT P6SM VCSH BKN050
     FM010200 22005KT P6SM VCSH BKN050=

USA.gov is the U.S. government's official web portal to all federal, state and local government web resources and services.